LQSA/SJJ METAR and TAF weather

Enter ICAO airport designator
Station Type Date Time Source
LQSA METAR 2019/10/15 18:30 UTC NOAA

LQSA 151830Z VRB01KT CAVOK 12/07 Q1017 NOSIG


Station Type Date Time Source
LQSA Decoded METAR 2019/10/15 18:30 UTC NOAA

Sarajevo, Bosnia and Herzegovina (LQSA) 43-49N 018-20E 510M
Oct 15, 2019 - 02:30 PM EDT / 2019.10.15 1830 UTC
Wind: Variable at 1 MPH (1 KT):0
Visibility: greater than 7 mile(s):0
Temperature: 53 F (12 C)
Dew Point: 44 F (7 C)
Relative Humidity: 71%
Pressure (altimeter): 30.03 in. Hg (1017 hPa)
ob: LQSA 151830Z VRB01KT CAVOK 12/07 Q1017 NOSIG
cycle: 18

Station Type Date Time Source
LQSA TAF 2019/10/15 18:08 UTC NOAA

TAF LQSA 151700Z 1518/1618 VRB02KT CAVOK TX24/1614Z TN03/1604Z
BECMG 1603/1605 3000 BR PROB30
TEMPO 1605/1607 0400 FG BKN001
BECMG 1607/1609 CAVOK

Example: see airport list